Time;durP1;ratioP1;P1;durP2;ratioP2;P2;SDS_P1;SDS_P2;PMS_P1;PMS_P2;Temp;Humidity;BMP_temperature;BMP_pressure;BME280_temperature;BME280_humidity;BME280_pressure;Samples;Min_cycle;Max_cycle;Signal;HPM_P1;HPM_P2
2023/05/03 00:02:11;;;;;;;5.43;2.85;;;;;;;;;;5009881;28;20058;-60
2023/05/03 00:04:37;;;;;;;6.70;3.30;;;;;;;;;;5015790;28;20045;-60
2023/05/03 00:07:02;;;;;;;5.90;3.33;;;;;;;;;;5010425;28;20037;-60
2023/05/03 00:09:28;;;;;;;5.50;2.85;;;;;;;;;;5023400;28;20136;-61
2023/05/03 00:11:54;;;;;;;5.25;2.90;;;;;;;;;;5020150;28;20476;-60
2023/05/03 00:14:19;;;;;;;7.22;3.08;;;;;;;;;;5009687;28;20056;-60
2023/05/03 00:16:44;;;;;;;5.47;3.15;;;;;;;;;;5022338;28;20033;-61
2023/05/03 00:19:10;;;;;;;7.70;3.40;;;;;;;;;;5020208;28;20079;-62
2023/05/03 00:21:35;;;;;;;6.05;3.08;;;;;;;;;;5021253;28;20503;-61
2023/05/03 00:24:01;;;;;;;8.30;3.13;;;;;;;;;;5018211;28;20037;-62
2023/05/03 00:26:27;;;;;;;7.55;3.10;;;;;;;;;;5016709;28;20037;-61
2023/05/03 00:28:52;;;;;;;5.63;3.10;;;;;;;;;;5022518;28;20033;-61
2023/05/03 00:31:18;;;;;;;5.50;3.13;;;;;;;;;;5016535;28;20034;-61
2023/05/03 00:33:43;;;;;;;7.75;3.20;;;;;;;;;;5025059;28;20472;-61
2023/05/03 00:36:10;;;;;;;5.85;2.95;;;;;;;;;;5029418;28;20039;-61
2023/05/03 00:38:36;;;;;;;6.15;3.10;;;;;;;;;;5029742;28;20412;-60
2023/05/03 00:41:02;;;;;;;9.52;3.13;;;;;;;;;;5034258;28;20025;-60
2023/05/03 00:43:28;;;;;;;5.07;3.00;;;;;;;;;;5033464;28;20041;-60
2023/05/03 00:45:53;;;;;;;6.35;2.85;;;;;;;;;;5034992;28;20033;-60
2023/05/03 00:48:19;;;;;;;6.85;3.17;;;;;;;;;;5020654;28;20598;-60
2023/05/03 00:50:46;;;;;;;5.78;2.90;;;;;;;;;;5032984;28;20125;-60
2023/05/03 00:53:12;;;;;;;6.68;3.05;;;;;;;;;;5032168;28;20042;-61
2023/05/03 00:55:38;;;;;;;7.55;2.80;;;;;;;;;;5034702;28;20034;-60
2023/05/03 00:58:03;;;;;;;6.90;3.13;;;;;;;;;;5030600;28;20057;-60
2023/05/03 01:00:30;;;;;;;5.97;2.80;;;;;;;;;;5016425;28;20072;-60
2023/05/03 01:02:56;;;;;;;6.07;3.00;;;;;;;;;;5027710;28;20040;-60
2023/05/03 01:05:21;;;;;;;6.20;2.80;;;;;;;;;;5030812;28;20034;-60
2023/05/03 01:08:02;;;;;;;5.18;3.30;;;;;;;;;;5034722;28;20517;-62
2023/05/03 01:10:43;;;;;;;5.32;3.33;;;;;;;;;;5013659;28;20033;-62
2023/05/03 01:13:35;;;;;;;5.97;3.27;;;;;;;;;;5016653;28;20037;-62
2023/05/03 01:16:19;;;;;;;8.18;2.95;;;;;;;;;;5033978;28;20387;-60
2023/05/03 01:18:48;;;;;;;5.93;3.10;;;;;;;;;;5029771;28;20052;-61
2023/05/03 01:21:17;;;;;;;7.97;3.47;;;;;;;;;;5017985;28;20464;-61
2023/05/03 01:24:04;;;;;;;5.47;3.00;;;;;;;;;;5029859;28;20141;-61
2023/05/03 01:26:30;;;;;;;7.13;3.58;;;;;;;;;;5026659;28;20041;-61
2023/05/03 01:28:55;;;;;;;5.28;3.15;;;;;;;;;;5023035;28;20052;-60
2023/05/03 01:31:28;;;;;;;6.90;3.28;;;;;;;;;;5030212;28;20275;-60
2023/05/03 01:34:13;;;;;;;9.63;3.17;;;;;;;;;;5032431;28;20377;-60
2023/05/03 01:36:42;;;;;;;6.80;3.47;;;;;;;;;;5027348;28;20026;-60
2023/05/03 01:39:21;;;;;;;9.43;3.58;;;;;;;;;;5024234;28;20046;-61
2023/05/03 01:41:49;;;;;;;10.80;3.58;;;;;;;;;;5026409;28;20037;-61
2023/05/03 01:44:15;;;;;;;7.18;3.80;;;;;;;;;;5018403;28;20040;-60
2023/05/03 01:46:42;;;;;;;5.32;3.13;;;;;;;;;;5012721;28;20029;-60
2023/05/03 01:49:08;;;;;;;7.95;3.45;;;;;;;;;;5022397;28;20041;-61
2023/05/03 01:51:33;;;;;;;6.85;3.55;;;;;;;;;;5025997;28;20067;-60
2023/05/03 01:53:59;;;;;;;9.32;3.78;;;;;;;;;;5013983;28;20562;-60
2023/05/03 01:56:25;;;;;;;7.90;3.67;;;;;;;;;;5010501;28;20025;-60
2023/05/03 01:58:50;;;;;;;7.40;3.40;;;;;;;;;;5018400;28;20037;-61
2023/05/03 02:01:15;;;;;;;6.85;3.33;;;;;;;;;;5025217;28;20125;-60
2023/05/03 02:03:41;;;;;;;9.70;3.25;;;;;;;;;;5014353;28;20361;-61
2023/05/03 02:06:06;;;;;;;7.68;3.95;;;;;;;;;;5026894;28;20065;-61
2023/05/03 02:08:32;;;;;;;6.95;3.38;;;;;;;;;;5013302;28;20116;-61
2023/05/03 02:10:57;;;;;;;7.00;3.53;;;;;;;;;;5028075;28;20054;-60
2023/05/03 02:13:23;;;;;;;8.82;4.22;;;;;;;;;;5026932;28;20029;-61
2023/05/03 02:15:48;;;;;;;7.85;3.90;;;;;;;;;;5033227;28;20037;-61
2023/05/03 02:18:15;;;;;;;8.18;3.83;;;;;;;;;;5026112;28;20056;-62
2023/05/03 02:20:44;;;;;;;6.18;3.63;;;;;;;;;;5033225;28;20108;-61
2023/05/03 02:23:09;;;;;;;7.30;3.65;;;;;;;;;;5029861;28;20037;-62
2023/05/03 02:25:35;;;;;;;9.48;3.97;;;;;;;;;;5026504;28;20365;-60
2023/05/03 02:28:00;;;;;;;10.20;4.28;;;;;;;;;;5022663;28;20034;-61
2023/05/03 02:30:26;;;;;;;6.85;3.53;;;;;;;;;;5016634;28;20034;-61
2023/05/03 02:32:51;;;;;;;8.00;3.75;;;;;;;;;;5017272;28;20540;-60
2023/05/03 02:35:16;;;;;;;6.43;3.70;;;;;;;;;;5026906;28;20098;-61
2023/05/03 02:37:42;;;;;;;8.02;3.90;;;;;;;;;;5024291;28;20045;-60
2023/05/03 02:40:10;;;;;;;8.80;3.45;;;;;;;;;;5011710;28;20034;-61
2023/05/03 02:42:36;;;;;;;9.13;4.07;;;;;;;;;;5015229;28;20030;-61
2023/05/03 02:45:02;;;;;;;8.80;3.72;;;;;;;;;;5027304;28;20060;-62
2023/05/03 02:47:28;;;;;;;9.43;3.75;;;;;;;;;;5029183;28;20025;-62
2023/05/03 02:49:53;;;;;;;5.93;3.75;;;;;;;;;;5032047;28;20065;-60
2023/05/03 02:52:18;;;;;;;11.40;4.20;;;;;;;;;;5030031;28;20034;-61
2023/05/03 02:54:45;;;;;;;8.52;4.03;;;;;;;;;;5030182;28;20492;-60
2023/05/03 02:57:11;;;;;;;9.75;4.20;;;;;;;;;;5021111;28;20529;-60
2023/05/03 02:59:37;;;;;;;9.80;4.35;;;;;;;;;;5026175;28;20030;-60
2023/05/03 03:02:02;;;;;;;8.13;4.22;;;;;;;;;;5028515;28;20494;-60
2023/05/03 03:04:28;;;;;;;10.75;4.00;;;;;;;;;;5026947;28;20262;-61
2023/05/03 03:06:53;;;;;;;7.90;4.15;;;;;;;;;;5024669;28;20034;-60
2023/05/03 03:09:19;;;;;;;8.13;4.30;;;;;;;;;;5012052;28;20052;-62
2023/05/03 03:11:45;;;;;;;7.90;4.10;;;;;;;;;;5018008;28;20152;-61
2023/05/03 03:14:10;;;;;;;7.18;4.22;;;;;;;;;;5021215;28;20030;-61
2023/05/03 03:16:35;;;;;;;8.27;4.15;;;;;;;;;;5020763;28;20052;-61
2023/05/03 03:19:01;;;;;;;9.93;3.70;;;;;;;;;;5015040;28;20522;-61
2023/05/03 03:21:27;;;;;;;8.98;4.45;;;;;;;;;;5024087;28;20667;-62
2023/05/03 03:23:53;;;;;;;10.82;4.43;;;;;;;;;;5028668;28;20034;-61
2023/05/03 03:26:18;;;;;;;8.05;4.30;;;;;;;;;;5012985;28;20092;-61
2023/05/03 03:28:44;;;;;;;9.18;4.30;;;;;;;;;;5015192;28;20040;-61
2023/05/03 03:31:10;;;;;;;10.20;4.75;;;;;;;;;;5029818;28;20033;-62
2023/05/03 03:33:35;;;;;;;7.95;4.43;;;;;;;;;;5026741;28;20032;-60
2023/05/03 03:36:01;;;;;;;9.98;4.28;;;;;;;;;;5028076;28;20439;-61
2023/05/03 03:38:26;;;;;;;10.93;4.72;;;;;;;;;;5015198;28;20077;-61
2023/05/03 03:40:53;;;;;;;7.82;4.40;;;;;;;;;;5018362;28;20437;-64
2023/05/03 03:43:18;;;;;;;10.20;4.53;;;;;;;;;;5022182;28;20444;-63
2023/05/03 03:45:44;;;;;;;10.80;5.00;;;;;;;;;;5014384;28;20511;-63
2023/05/03 03:48:09;;;;;;;9.73;4.47;;;;;;;;;;5014199;28;20033;-63
2023/05/03 03:50:35;;;;;;;10.35;5.10;;;;;;;;;;5026090;28;20052;-63
2023/05/03 03:53:01;;;;;;;9.43;5.35;;;;;;;;;;5028845;28;20073;-63
2023/05/03 03:55:26;;;;;;;11.45;5.15;;;;;;;;;;5018722;28;20070;-63
2023/05/03 03:57:52;;;;;;;11.68;5.10;;;;;;;;;;5011355;28;20468;-64
2023/05/03 04:00:17;;;;;;;10.52;5.25;;;;;;;;;;5023585;28;20044;-62
2023/05/03 04:02:43;;;;;;;12.20;5.63;;;;;;;;;;5025918;28;20029;-63
2023/05/03 04:05:08;;;;;;;12.48;5.28;;;;;;;;;;5031665;28;20072;-62
2023/05/03 04:07:34;;;;;;;11.80;5.55;;;;;;;;;;5018977;28;20092;-64
2023/05/03 04:09:59;;;;;;;9.93;5.10;;;;;;;;;;5029658;28;20033;-62
2023/05/03 04:12:24;;;;;;;10.77;5.88;;;;;;;;;;5019144;28;20496;-63
2023/05/03 04:14:50;;;;;;;11.38;5.75;;;;;;;;;;5014958;28;20208;-63
2023/05/03 04:17:15;;;;;;;11.75;5.57;;;;;;;;;;5015256;28;20029;-63
2023/05/03 04:19:42;;;;;;;11.75;5.38;;;;;;;;;;5018347;28;20034;-63
2023/05/03 04:22:08;;;;;;;12.75;5.55;;;;;;;;;;5018280;28;20111;-63
2023/05/03 04:24:34;;;;;;;9.55;5.38;;;;;;;;;;5015030;28;20555;-62
2023/05/03 04:27:03;;;;;;;9.65;5.72;;;;;;;;;;5015723;28;20021;-62
2023/05/03 04:29:28;;;;;;;10.18;5.57;;;;;;;;;;5018205;28;20052;-63
2023/05/03 04:31:54;;;;;;;14.43;5.55;;;;;;;;;;5033065;28;20029;-63
2023/05/03 04:34:19;;;;;;;10.60;5.82;;;;;;;;;;5028640;28;20022;-63
2023/05/03 04:36:45;;;;;;;10.40;5.43;;;;;;;;;;5016674;28;20544;-62
2023/05/03 04:39:11;;;;;;;12.55;5.88;;;;;;;;;;5028970;28;20062;-64
2023/05/03 04:41:37;;;;;;;9.02;5.45;;;;;;;;;;5015351;28;20132;-64
2023/05/03 04:44:04;;;;;;;11.95;5.60;;;;;;;;;;5026782;28;20125;-63
2023/05/03 04:46:30;;;;;;;13.23;5.70;;;;;;;;;;5033077;28;20084;-63
2023/05/03 04:48:56;;;;;;;12.45;5.70;;;;;;;;;;5035143;28;20025;-62
2023/05/03 04:51:22;;;;;;;11.32;5.80;;;;;;;;;;5032851;28;20045;-63
2023/05/03 04:53:47;;;;;;;9.50;5.55;;;;;;;;;;5034759;28;20044;-63
2023/05/03 04:56:13;;;;;;;13.10;5.40;;;;;;;;;;5020460;28;20030;-63
2023/05/03 04:58:38;;;;;;;12.23;5.70;;;;;;;;;;5028619;28;20484;-62
2023/05/03 05:01:04;;;;;;;12.65;5.82;;;;;;;;;;5028386;28;20380;-63
2023/05/03 05:03:32;;;;;;;12.00;6.20;;;;;;;;;;5048180;28;20028;-64
2023/05/03 05:05:57;;;;;;;13.70;5.45;;;;;;;;;;5052427;28;20484;-63
2023/05/03 05:08:23;;;;;;;10.43;5.95;;;;;;;;;;5033499;28;20175;-63
2023/05/03 05:10:48;;;;;;;10.32;5.78;;;;;;;;;;5033978;28;20033;-63
2023/05/03 05:13:14;;;;;;;9.18;5.88;;;;;;;;;;5015822;28;20109;-63
2023/05/03 05:15:39;;;;;;;12.15;5.80;;;;;;;;;;5029581;28;20037;-62
2023/05/03 05:18:05;;;;;;;12.05;5.28;;;;;;;;;;5021913;28;20108;-63
2023/05/03 05:20:30;;;;;;;10.60;5.43;;;;;;;;;;5013934;28;20025;-63
2023/05/03 05:22:56;;;;;;;13.70;5.57;;;;;;;;;;5025882;28;20033;-62
2023/05/03 05:25:21;;;;;;;17.20;6.25;;;;;;;;;;5032294;28;20034;-62
2023/05/03 05:27:46;;;;;;;12.27;5.60;;;;;;;;;;5034289;28;20026;-62
2023/05/03 05:30:12;;;;;;;11.80;5.30;;;;;;;;;;5022195;28;20048;-63
2023/05/03 05:32:38;;;;;;;10.38;5.43;;;;;;;;;;5012274;28;20502;-63
2023/05/03 05:35:04;;;;;;;10.15;5.25;;;;;;;;;;5013967;28;20192;-63
2023/05/03 05:37:29;;;;;;;10.65;5.75;;;;;;;;;;5012468;28;20455;-63
2023/05/03 05:39:55;;;;;;;8.85;4.93;;;;;;;;;;5014694;28;20409;-63
2023/05/03 05:42:21;;;;;;;13.13;5.78;;;;;;;;;;5028656;28;20496;-63
2023/05/03 05:44:46;;;;;;;9.60;5.00;;;;;;;;;;5029770;28;20041;-62
2023/05/03 05:47:11;;;;;;;8.48;5.55;;;;;;;;;;5014330;28;20025;-62
2023/05/03 05:49:37;;;;;;;8.43;4.90;;;;;;;;;;5011295;28;20119;-62
2023/05/03 05:52:02;;;;;;;12.43;5.20;;;;;;;;;;5016096;28;20066;-63
2023/05/03 05:54:28;;;;;;;10.30;5.30;;;;;;;;;;5013539;28;20042;-63
2023/05/03 05:56:53;;;;;;;13.32;5.55;;;;;;;;;;5013873;28;20117;-62
2023/05/03 05:59:19;;;;;;;11.20;5.00;;;;;;;;;;5015620;28;20033;-63
2023/05/03 06:01:45;;;;;;;11.65;5.22;;;;;;;;;;5032008;28;20040;-63
2023/05/03 06:04:14;;;;;;;8.43;4.63;;;;;;;;;;5018926;28;20080;-63
2023/05/03 06:06:40;;;;;;;8.65;4.70;;;;;;;;;;5012944;28;20140;-64
2023/05/03 06:09:07;;;;;;;11.13;5.05;;;;;;;;;;5013767;28;20041;-63
2023/05/03 06:11:33;;;;;;;10.98;4.70;;;;;;;;;;5027784;28;20038;-63
2023/05/03 06:13:59;;;;;;;11.05;4.45;;;;;;;;;;5016856;28;20049;-62
2023/05/03 06:16:25;;;;;;;11.55;4.60;;;;;;;;;;5015303;28;20528;-62
2023/05/03 06:18:50;;;;;;;7.50;4.32;;;;;;;;;;5015880;28;20141;-62
2023/05/03 06:21:16;;;;;;;10.20;4.57;;;;;;;;;;5013538;28;20037;-63
2023/05/03 06:23:42;;;;;;;8.95;4.38;;;;;;;;;;5026829;28;20128;-61
2023/05/03 06:26:07;;;;;;;7.80;4.30;;;;;;;;;;5013271;28;20125;-63
2023/05/03 06:28:34;;;;;;;10.25;4.43;;;;;;;;;;5026254;28;20498;-62
2023/05/03 06:30:59;;;;;;;10.23;4.18;;;;;;;;;;5014639;28;20056;-63
2023/05/03 06:33:25;;;;;;;11.27;4.50;;;;;;;;;;5024991;28;20037;-63
2023/05/03 06:35:50;;;;;;;11.35;4.03;;;;;;;;;;5012518;28;20033;-63
2023/05/03 06:38:16;;;;;;;8.77;4.32;;;;;;;;;;5011098;28;20049;-62
2023/05/03 06:40:44;;;;;;;7.60;4.45;;;;;;;;;;5018441;28;20191;-63
2023/05/03 06:43:09;;;;;;;8.68;4.45;;;;;;;;;;5032908;28;20033;-63
2023/05/03 06:45:35;;;;;;;13.38;4.70;;;;;;;;;;5019074;28;20053;-62
2023/05/03 06:48:00;;;;;;;9.95;4.85;;;;;;;;;;5013196;28;20029;-63
2023/05/03 06:50:25;;;;;;;15.15;5.13;;;;;;;;;;5011841;28;20059;-62
2023/05/03 06:52:51;;;;;;;10.55;4.32;;;;;;;;;;5012715;28;20034;-62
2023/05/03 06:55:16;;;;;;;10.75;4.50;;;;;;;;;;5013130;28;20112;-63
2023/05/03 06:57:42;;;;;;;8.00;4.05;;;;;;;;;;5012983;28;20193;-63
2023/05/03 07:00:08;;;;;;;8.88;4.30;;;;;;;;;;5024987;28;20063;-62
2023/05/03 07:02:34;;;;;;;9.20;4.22;;;;;;;;;;5051840;28;20586;-62
2023/05/03 07:04:59;;;;;;;8.18;4.13;;;;;;;;;;5040932;28;20104;-62
2023/05/03 07:07:25;;;;;;;10.05;4.18;;;;;;;;;;5031589;28;20064;-62
2023/05/03 07:09:50;;;;;;;6.63;3.65;;;;;;;;;;5019454;28;20109;-62
2023/05/03 07:12:16;;;;;;;9.57;3.45;;;;;;;;;;5012365;28;20042;-62
2023/05/03 07:14:41;;;;;;;10.63;3.80;;;;;;;;;;5011822;28;20055;-62
2023/05/03 07:17:07;;;;;;;6.80;3.70;;;;;;;;;;5016676;28;20046;-61
2023/05/03 07:19:33;;;;;;;7.88;3.58;;;;;;;;;;5014631;28;20117;-63
2023/05/03 07:21:59;;;;;;;6.88;3.55;;;;;;;;;;5022329;28;20104;-62
2023/05/03 07:24:24;;;;;;;9.82;3.88;;;;;;;;;;5018782;28;20038;-62
2023/05/03 07:26:51;;;;;;;8.75;3.45;;;;;;;;;;5027269;28;20033;-63
2023/05/03 07:29:16;;;;;;;8.55;3.70;;;;;;;;;;5012302;28;20033;-62
2023/05/03 07:31:43;;;;;;;6.43;3.50;;;;;;;;;;5013724;28;20026;-63
2023/05/03 07:34:09;;;;;;;5.60;3.28;;;;;;;;;;5022883;28;20160;-63
2023/05/03 07:36:34;;;;;;;7.07;3.50;;;;;;;;;;5029755;28;20108;-62
2023/05/03 07:39:00;;;;;;;8.15;3.63;;;;;;;;;;5027222;28;20050;-62
2023/05/03 07:41:25;;;;;;;10.25;3.90;;;;;;;;;;5029882;28;20419;-63
2023/05/03 07:43:51;;;;;;;6.30;3.42;;;;;;;;;;5012838;28;20037;-63
2023/05/03 07:46:16;;;;;;;7.40;3.60;;;;;;;;;;5023137;28;20065;-62
2023/05/03 07:48:41;;;;;;;6.80;3.70;;;;;;;;;;5013991;28;20029;-63
2023/05/03 07:51:07;;;;;;;9.48;3.33;;;;;;;;;;5031688;28;20483;-62
2023/05/03 07:53:34;;;;;;;5.90;3.40;;;;;;;;;;5022911;28;20031;-61
2023/05/03 07:55:59;;;;;;;12.65;3.63;;;;;;;;;;5012330;28;20168;-61
2023/05/03 07:58:25;;;;;;;7.55;3.70;;;;;;;;;;5011327;28;20037;-62
2023/05/03 08:00:51;;;;;;;6.80;3.65;;;;;;;;;;5011166;28;20108;-62
2023/05/03 08:03:17;;;;;;;6.72;3.45;;;;;;;;;;5013202;28;20073;-62
2023/05/03 08:05:42;;;;;;;12.27;3.80;;;;;;;;;;5010853;28;20038;-62
2023/05/03 08:08:08;;;;;;;6.53;3.78;;;;;;;;;;5012266;28;20142;-62
2023/05/03 08:10:36;;;;;;;9.52;3.33;;;;;;;;;;5013283;28;20034;-62
2023/05/03 08:13:03;;;;;;;7.85;3.08;;;;;;;;;;5018896;28;20116;-61
2023/05/03 08:15:29;;;;;;;7.85;3.15;;;;;;;;;;5017716;28;20459;-61
2023/05/03 08:17:54;;;;;;;6.07;3.25;;;;;;;;;;5014227;28;20481;-61
2023/05/03 08:20:20;;;;;;;7.60;3.20;;;;;;;;;;5025990;28;20383;-62
2023/05/03 08:22:46;;;;;;;6.03;3.30;;;;;;;;;;5011961;28;20587;-61
2023/05/03 08:25:11;;;;;;;5.13;3.10;;;;;;;;;;5011010;28;20041;-62
2023/05/03 08:27:37;;;;;;;8.13;3.63;;;;;;;;;;5036277;28;20033;-61
2023/05/03 08:30:03;;;;;;;5.30;3.30;;;;;;;;;;5051580;28;20033;-62
2023/05/03 08:32:29;;;;;;;8.38;3.60;;;;;;;;;;5035728;28;20036;-62
2023/05/03 08:34:55;;;;;;;7.22;3.15;;;;;;;;;;5031510;28;20029;-62
2023/05/03 08:37:21;;;;;;;8.48;3.40;;;;;;;;;;5031293;28;20056;-62
2023/05/03 08:39:47;;;;;;;6.72;3.05;;;;;;;;;;5029614;28;20021;-62
2023/05/03 08:42:12;;;;;;;7.68;3.25;;;;;;;;;;5011235;28;20487;-62
2023/05/03 08:44:46;;;;;;;7.88;2.90;;;;;;;;;;5011068;28;20369;-62
2023/05/03 08:47:14;;;;;;;7.18;3.20;;;;;;;;;;5018554;28;20029;-63
2023/05/03 08:49:41;;;;;;;4.53;3.17;;;;;;;;;;5011108;28;20080;-63
2023/05/03 08:52:09;;;;;;;9.82;3.30;;;;;;;;;;5010900;28;20034;-63
2023/05/03 08:54:35;;;;;;;6.53;3.30;;;;;;;;;;5010757;28;20104;-62
2023/05/03 08:57:00;;;;;;;8.88;3.45;;;;;;;;;;5010682;28;20415;-63
2023/05/03 08:59:28;;;;;;;5.65;2.85;;;;;;;;;;5015177;28;20048;-62
2023/05/03 09:01:53;;;;;;;8.43;3.10;;;;;;;;;;5035046;28;20033;-63
2023/05/03 09:04:19;;;;;;;5.38;3.28;;;;;;;;;;5054594;28;20041;-63
2023/05/03 09:06:44;;;;;;;7.20;3.25;;;;;;;;;;5037016;28;20084;-64
2023/05/03 09:09:10;;;;;;;6.47;2.90;;;;;;;;;;5027475;28;20038;-63
2023/05/03 09:11:37;;;;;;;7.13;3.30;;;;;;;;;;5014192;28;20040;-62
2023/05/03 09:14:14;;;;;;;7.85;3.40;;;;;;;;;;5027032;28;20044;-62
2023/05/03 09:16:43;;;;;;;6.20;3.20;;;;;;;;;;5033484;28;20478;-62
2023/05/03 09:19:11;;;;;;;6.07;3.15;;;;;;;;;;5017491;28;20112;-62
2023/05/03 09:21:37;;;;;;;8.23;3.17;;;;;;;;;;5023871;28;20113;-63
2023/05/03 09:24:13;;;;;;;7.50;3.08;;;;;;;;;;5029527;28;20057;-62
2023/05/03 09:26:39;;;;;;;7.32;3.40;;;;;;;;;;5030519;28;20025;-61
2023/05/03 09:29:05;;;;;;;7.43;3.20;;;;;;;;;;5032760;28;20030;-61
2023/05/03 09:31:32;;;;;;;7.15;3.15;;;;;;;;;;5033919;28;20526;-62
2023/05/03 09:33:59;;;;;;;9.07;3.58;;;;;;;;;;5027783;28;20037;-62
2023/05/03 09:36:24;;;;;;;6.00;3.25;;;;;;;;;;5013586;28;20464;-62
2023/05/03 09:38:51;;;;;;;8.27;3.55;;;;;;;;;;5012756;28;20042;-62
2023/05/03 09:41:27;;;;;;;8.50;3.28;;;;;;;;;;5014721;28;20030;-62
2023/05/03 09:43:55;;;;;;;6.45;3.38;;;;;;;;;;5012808;28;20041;-61
2023/05/03 09:46:20;;;;;;;7.88;3.40;;;;;;;;;;5015106;28;20026;-62
2023/05/03 09:48:46;;;;;;;8.25;3.50;;;;;;;;;;5019795;28;20212;-62
2023/05/03 09:51:12;;;;;;;6.20;3.40;;;;;;;;;;5022380;28;20034;-62
2023/05/03 09:53:39;;;;;;;7.25;3.45;;;;;;;;;;5013350;28;20030;-62
2023/05/03 09:56:12;;;;;;;8.32;3.72;;;;;;;;;;5014074;28;20060;-62
2023/05/03 09:58:39;;;;;;;8.15;3.38;;;;;;;;;;5013395;28;20044;-61
2023/05/03 10:01:04;;;;;;;8.57;3.63;;;;;;;;;;5015493;28;20116;-62
2023/05/03 10:03:40;;;;;;;7.00;3.45;;;;;;;;;;5015665;28;20222;-62
2023/05/03 10:06:23;;;;;;;6.57;3.50;;;;;;;;;;5013516;28;20117;-62
2023/05/03 10:08:59;;;;;;;7.90;3.55;;;;;;;;;;5013259;28;20057;-62
2023/05/03 10:11:26;;;;;;;6.63;3.70;;;;;;;;;;5013008;28;20155;-62
2023/05/03 10:13:52;;;;;;;6.38;3.80;;;;;;;;;;5029608;28;20043;-62
2023/05/03 10:16:23;;;;;;;5.75;3.38;;;;;;;;;;5033735;28;20037;-62
2023/05/03 10:19:10;;;;;;;7.75;3.72;;;;;;;;;;5027550;28;20030;-62
2023/05/03 10:21:58;;;;;;;6.63;3.88;;;;;;;;;;5024732;28;20137;-62
2023/05/03 10:24:24;;;;;;;7.15;3.83;;;;;;;;;;5013941;28;20045;-62
2023/05/03 10:26:50;;;;;;;6.70;3.97;;;;;;;;;;5027217;28;20380;-62
2023/05/03 10:29:34;;;;;;;6.85;4.20;;;;;;;;;;5020262;28;20069;-62
2023/05/03 10:32:35;;;;;;;7.13;4.00;;;;;;;;;;5027082;28;20080;-62
2023/05/03 10:35:12;;;;;;;;;;;;;;;;;;5024131;28;20395;-62
2023/05/03 10:37:40;;;;;;;9.75;3.60;;;;;;;;;;5013871;28;20430;-62
2023/05/03 10:40:08;;;;;;;8.55;3.63;;;;;;;;;;5029312;28;20029;-62
2023/05/03 10:42:34;;;;;;;7.57;3.55;;;;;;;;;;5029815;28;20025;-62
2023/05/03 10:45:01;;;;;;;5.53;3.65;;;;;;;;;;5032443;28;20043;-64
2023/05/03 10:47:27;;;;;;;6.50;3.63;;;;;;;;;;5023562;28;20030;-63
2023/05/03 10:50:25;;;;;;;9.15;4.00;;;;;;;;;;5018982;28;20945;-62
2023/05/03 10:52:50;;;;;;;8.10;3.50;;;;;;;;;;5013867;28;20124;-63
2023/05/03 10:55:21;;;;;;;6.05;4.30;;;;;;;;;;5028697;28;20602;-63
2023/05/03 10:57:47;;;;;;;9.23;4.50;;;;;;;;;;5030795;28;20566;-63
2023/05/03 11:00:21;;;;;;;6.30;3.80;;;;;;;;;;5026356;28;20506;-63
2023/05/03 11:02:55;;;;;;;4.68;3.60;;;;;;;;;;5050473;28;20078;-64
2023/05/03 11:05:23;;;;;;;8.82;3.75;;;;;;;;;;5046491;28;20037;-63
2023/05/03 11:07:48;;;;;;;7.75;3.80;;;;;;;;;;5032429;28;20167;-64
2023/05/03 11:10:17;;;;;;;6.63;3.95;;;;;;;;;;5013463;28;20204;-64
2023/05/03 11:12:43;;;;;;;8.20;3.90;;;;;;;;;;5012456;28;20037;-63
2023/05/03 11:15:10;;;;;;;7.00;3.78;;;;;;;;;;5012810;28;20083;-62
2023/05/03 11:17:37;;;;;;;6.63;3.72;;;;;;;;;;5017182;28;20041;-62
2023/05/03 11:20:07;;;;;;;6.72;3.60;;;;;;;;;;5031403;28;20041;-63
2023/05/03 11:22:33;;;;;;;5.87;3.17;;;;;;;;;;5014969;28;20108;-64
2023/05/03 11:24:59;;;;;;;6.25;3.30;;;;;;;;;;5017238;28;20034;-64
2023/05/03 11:27:24;;;;;;;7.57;3.78;;;;;;;;;;5027623;28;20120;-62
2023/05/03 11:29:49;;;;;;;9.10;3.85;;;;;;;;;;5030445;28;20049;-62
2023/05/03 11:32:17;;;;;;;6.00;3.60;;;;;;;;;;5029762;28;20025;-63
2023/05/03 11:34:43;;;;;;;6.20;3.63;;;;;;;;;;5031040;28;20039;-63
2023/05/03 11:37:09;;;;;;;7.78;3.40;;;;;;;;;;5012652;28;20049;-62
2023/05/03 11:39:36;;;;;;;4.30;3.13;;;;;;;;;;5012316;28;20029;-63
2023/05/03 11:42:03;;;;;;;6.55;3.70;;;;;;;;;;5020128;28;20033;-63
2023/05/03 11:44:28;;;;;;;8.13;3.80;;;;;;;;;;5030747;28;20045;-63
2023/05/03 11:46:54;;;;;;;6.88;3.55;;;;;;;;;;5029798;28;20033;-63
2023/05/03 11:49:20;;;;;;;7.90;3.20;;;;;;;;;;5031924;28;20087;-63
2023/05/03 11:51:45;;;;;;;11.13;3.78;;;;;;;;;;5027303;28;20057;-62
2023/05/03 11:54:11;;;;;;;6.15;3.15;;;;;;;;;;5018058;28;20473;-63
2023/05/03 11:56:36;;;;;;;7.63;3.35;;;;;;;;;;5011111;28;20038;-62
2023/05/03 11:59:02;;;;;;;8.48;3.92;;;;;;;;;;5029734;28;20030;-63
2023/05/03 12:01:28;;;;;;;4.63;3.40;;;;;;;;;;5025538;28;20491;-62
2023/05/03 12:03:57;;;;;;;7.80;3.90;;;;;;;;;;5024645;28;20049;-62
2023/05/03 12:06:23;;;;;;;6.22;3.25;;;;;;;;;;5017518;28;20449;-62
2023/05/03 12:08:49;;;;;;;4.78;3.40;;;;;;;;;;5010286;28;20511;-62
2023/05/03 12:11:14;;;;;;;6.53;3.75;;;;;;;;;;5011913;28;20069;-63
2023/05/03 12:13:41;;;;;;;6.82;3.60;;;;;;;;;;5026896;28;20033;-63
2023/05/03 12:16:08;;;;;;;5.95;3.72;;;;;;;;;;5030547;28;20033;-62
2023/05/03 12:19:02;;;;;;;7.90;4.18;;;;;;;;;;5031612;28;20033;-62
2023/05/03 12:21:47;;;;;;;5.45;3.60;;;;;;;;;;5022543;28;20092;-62
2023/05/03 12:24:17;;;;;;;8.65;3.63;;;;;;;;;;5024264;28;21291;-62
2023/05/03 12:26:44;;;;;;;5.57;3.85;;;;;;;;;;5010476;28;20030;-62
2023/05/03 12:29:10;;;;;;;6.75;3.75;;;;;;;;;;5011332;28;20084;-62
2023/05/03 12:31:36;;;;;;;5.75;3.60;;;;;;;;;;5025972;28;20034;-62
2023/05/03 12:34:02;;;;;;;7.40;3.92;;;;;;;;;;5010784;28;20025;-62
2023/05/03 12:36:30;;;;;;;6.45;3.83;;;;;;;;;;5013980;28;20049;-62
2023/05/03 12:38:55;;;;;;;6.45;3.97;;;;;;;;;;5030420;28;20053;-62
2023/05/03 12:41:22;;;;;;;5.70;3.78;;;;;;;;;;5020610;28;20025;-62
2023/05/03 12:43:48;;;;;;;6.35;3.70;;;;;;;;;;5026129;28;20036;-62
2023/05/03 12:46:13;;;;;;;8.32;4.00;;;;;;;;;;5015469;28;20034;-62
2023/05/03 12:48:38;;;;;;;7.82;4.32;;;;;;;;;;5014203;28;20124;-62
2023/05/03 12:51:04;;;;;;;6.03;3.70;;;;;;;;;;5014611;28;20045;-62
2023/05/03 12:53:30;;;;;;;5.60;3.95;;;;;;;;;;5027894;28;20037;-62
2023/05/03 12:55:55;;;;;;;6.68;3.83;;;;;;;;;;5031899;28;20029;-62
2023/05/03 12:58:21;;;;;;;5.60;3.60;;;;;;;;;;5014591;28;20034;-62
2023/05/03 13:00:47;;;;;;;8.15;3.88;;;;;;;;;;5042867;28;20052;-62
2023/05/03 13:03:13;;;;;;;5.60;3.65;;;;;;;;;;5054818;28;20043;-62
2023/05/03 13:05:39;;;;;;;6.85;3.60;;;;;;;;;;5038848;28;20419;-62
2023/05/03 13:08:05;;;;;;;6.10;3.85;;;;;;;;;;5034340;28;20091;-62
2023/05/03 13:10:30;;;;;;;8.23;4.10;;;;;;;;;;5016045;28;20392;-63
2023/05/03 13:12:56;;;;;;;7.13;4.13;;;;;;;;;;5021007;28;20033;-62
2023/05/03 13:15:23;;;;;;;5.97;3.85;;;;;;;;;;5023167;28;20473;-63
2023/05/03 13:17:48;;;;;;;8.18;4.28;;;;;;;;;;5013961;28;20488;-62
2023/05/03 13:20:14;;;;;;;7.60;4.07;;;;;;;;;;5016910;28;20049;-62
2023/05/03 13:22:40;;;;;;;5.70;4.32;;;;;;;;;;5015527;28;20026;-62
2023/05/03 13:25:05;;;;;;;5.97;3.83;;;;;;;;;;5015716;28;20029;-62
2023/05/03 13:27:31;;;;;;;7.05;4.20;;;;;;;;;;5032553;28;20384;-63
2023/05/03 13:29:57;;;;;;;5.78;4.03;;;;;;;;;;5032046;28;20033;-62
2023/05/03 13:32:23;;;;;;;7.28;4.00;;;;;;;;;;5032624;28;20040;-62
2023/05/03 13:34:48;;;;;;;5.88;3.78;;;;;;;;;;5013789;28;20033;-63
2023/05/03 13:37:17;;;;;;;7.57;4.10;;;;;;;;;;5027492;28;20029;-63
2023/05/03 13:39:44;;;;;;;9.20;4.57;;;;;;;;;;5026357;28;20087;-62
2023/05/03 13:42:09;;;;;;;6.22;3.80;;;;;;;;;;5013998;28;20484;-62
2023/05/03 13:44:35;;;;;;;6.28;4.22;;;;;;;;;;5026289;28;20116;-63
2023/05/03 13:47:00;;;;;;;8.68;4.30;;;;;;;;;;5033407;28;20026;-63
2023/05/03 13:49:25;;;;;;;7.10;4.25;;;;;;;;;;5034178;28;20033;-63
2023/05/03 13:51:51;;;;;;;8.48;4.60;;;;;;;;;;5029214;28;20407;-62
2023/05/03 13:54:17;;;;;;;5.68;4.25;;;;;;;;;;5014094;28;20081;-62
2023/05/03 13:56:42;;;;;;;7.28;4.40;;;;;;;;;;5024777;28;20079;-62
2023/05/03 13:59:10;;;;;;;7.95;4.60;;;;;;;;;;5033222;28;20076;-63
2023/05/03 14:01:36;;;;;;;8.18;4.55;;;;;;;;;;5016109;28;20034;-62
2023/05/03 14:04:02;;;;;;;8.45;4.57;;;;;;;;;;5028848;28;20065;-61
2023/05/03 14:06:28;;;;;;;8.70;4.75;;;;;;;;;;5014871;28;20543;-62
2023/05/03 14:08:55;;;;;;;5.85;4.22;;;;;;;;;;5012735;28;20122;-62
2023/05/03 14:11:21;;;;;;;9.75;4.20;;;;;;;;;;5013777;28;20046;-62
2023/05/03 14:13:49;;;;;;;6.88;4.63;;;;;;;;;;5012632;28;20391;-63
2023/05/03 14:16:25;;;;;;;6.53;4.20;;;;;;;;;;5013574;28;20030;-62
2023/05/03 14:18:52;;;;;;;7.15;4.30;;;;;;;;;;5028698;28;20480;-62
2023/05/03 14:21:18;;;;;;;7.75;4.43;;;;;;;;;;5033365;28;20109;-62
2023/05/03 14:23:46;;;;;;;7.38;4.28;;;;;;;;;;5028629;28;20060;-62
2023/05/03 14:26:12;;;;;;;8.20;4.45;;;;;;;;;;5013861;28;20034;-63
2023/05/03 14:28:38;;;;;;;10.10;4.50;;;;;;;;;;5019440;28;20042;-62
2023/05/03 14:31:05;;;;;;;8.18;4.20;;;;;;;;;;5024333;28;20033;-62
2023/05/03 14:33:32;;;;;;;8.23;4.32;;;;;;;;;;5021501;28;20121;-62
2023/05/03 14:35:57;;;;;;;8.27;4.40;;;;;;;;;;5020915;28;20040;-62
2023/05/03 14:38:23;;;;;;;7.15;4.38;;;;;;;;;;5023599;28;20050;-62
2023/05/03 14:40:48;;;;;;;7.68;4.20;;;;;;;;;;5013119;28;20064;-62